Time;durP1;ratioP1;P1;durP2;ratioP2;P2;SDS_P1;SDS_P2;PMS_P1;PMS_P2;Temp;Humidity;BMP_temperature;BMP_pressure;BME280_temperature;BME280_humidity;BME280_pressure;Samples;Min_cycle;Max_cycle;Signal;HPM_P1;HPM_P2
2022/08/12 00:44:39;;;;;;;;;;;;;;;23.80;38.57;100021.28;4297164;33;20007;-82
2022/08/12 00:47:08;;;;;;;;;;;;;;;23.66;38.95;100019.97;4291783;33;20298;-80
2022/08/12 00:49:52;;;;;;;;;;;;;;;23.91;38.80;100008.56;4285084;33;20852;-81
2022/08/12 00:52:19;;;;;;;;;;;;;;;23.61;40.04;100016.63;4297357;33;20338;-82
2022/08/12 00:54:55;;;;;;;;;;;;;;;23.61;39.97;100021.91;4289431;33;20279;-80
2022/08/12 00:57:24;;;;;;;;;;;;;;;23.78;38.80;100013.41;4281892;33;20024;-81
2022/08/12 00:59:51;;;;;;;;;;;;;;;23.64;39.40;100016.53;4291887;33;19995;-81
2022/08/12 01:02:22;;;;;;;;;;;;;;;23.82;39.40;100014.16;4281542;33;19980;-81
2022/08/12 01:13:16;;;;;;;;;;;;;;;23.51;40.43;100020.47;4281584;33;20319;-82
2022/08/12 01:15:47;;;;;;;;;;;;;;;23.52;39.96;100022.22;4284680;33;20037;-81
2022/08/12 01:18:15;;;;;;;;;;;;;;;23.33;40.52;100021.13;4283734;33;20008;-81
2022/08/12 01:20:47;;;;;;;;;;;;;;;23.34;40.81;100017.56;4283477;33;19977;-80
2022/08/12 01:23:23;;;;;;;;;;;;;;;23.44;39.87;100018.97;4285307;33;20268;-82
2022/08/12 01:25:51;;;;;;;;;;;;;;;23.23;40.57;100019.69;4292144;33;20020;-81
2022/08/12 01:28:23;;;;;;;;;;;;;;;23.10;41.02;100020.13;4307547;33;20060;-81
2022/08/12 01:30:50;;;;;;;;;;;;;;;23.40;40.27;100022.66;4288724;33;19989;-81
2022/08/12 01:33:17;;;;;;;;;;;;;;;23.33;40.46;100018.50;4269307;33;19983;-80
2022/08/12 01:35:48;;;;;;;;;;;;;;;23.17;40.62;100026.91;4269066;33;19989;-82
2022/08/12 01:38:34;;;;;;;;;;;;;;;23.18;40.43;100026.00;4264319;33;20334;-81
2022/08/12 01:41:02;;;;;;;;;;;;;;;23.20;40.52;100016.25;4257647;33;19989;-81
2022/08/12 01:43:29;;;;;;;;;;;;;;;23.23;40.33;100014.41;4269844;33;19985;-81
2022/08/12 01:46:07;;;;;;;;;;;;;;;23.29;40.78;100019.47;4275573;33;20000;-82
2022/08/12 01:48:49;;;;;;;;;;;;;;;23.39;40.07;100005.06;4268990;33;19989;-81
2022/08/12 01:51:49;;;;;;;;;;;;;;;23.09;40.83;100012.22;4268023;33;20029;-80
2022/08/12 01:54:42;;;;;;;;;;;;;;;23.14;41.04;100000.59;4272261;33;20433;-81
2022/08/12 01:57:09;;;;;;;;;;;;;;;22.87;41.15;100006.72;4270264;33;20048;-81
2022/08/12 01:59:49;;;;;;;;;;;;;;;23.07;41.04;99996.44;4276540;33;19981;-81
2022/08/12 02:02:18;;;;;;;;;;;;;;;22.84;41.76;100001.56;4269009;33;20004;-81
2022/08/12 02:13:41;;;;;;;;;;;;;;;22.76;42.14;99999.16;4283435;33;20011;-81
2022/08/12 02:16:35;;;;;;;;;;;;;;;22.66;41.95;99997.72;4278075;33;19999;-81
2022/08/12 02:19:05;;;;;;;;;;;;;;;22.54;42.17;99988.41;4268866;33;19977;-81
2022/08/12 02:22:01;;;;;;;;;;;;;;;22.63;42.05;99984.63;4269255;33;20042;-81
2022/08/12 02:24:31;;;;;;;;;;;;;;;22.58;42.06;99990.03;4270344;33;20322;-81
2022/08/12 02:26:58;;;;;;;;;;;;;;;22.83;41.69;99984.00;4272507;33;19977;-81
2022/08/12 02:29:25;;;;;;;;;;;;;;;22.81;41.84;99983.16;4279255;33;19981;-81
2022/08/12 02:31:52;;;;;;;;;;;;;;;22.72;42.05;99987.84;4269958;33;20687;-81
2022/08/12 02:34:19;;;;;;;;;;;;;;;22.57;42.12;99987.47;4277914;33;19977;-80
2022/08/12 02:36:46;;;;;;;;;;;;;;;22.66;41.69;99976.63;4280727;33;20760;-81
2022/08/12 02:39:13;;;;;;;;;;;;;;;22.65;41.60;99981.00;4293708;33;19985;-80
2022/08/12 02:41:45;;;;;;;;;;;;;;;22.58;42.12;99976.84;4291991;33;19991;-81
2022/08/12 02:44:14;;;;;;;;;;;;;;;22.42;42.11;99983.50;4275913;33;19993;-81
2022/08/12 02:46:41;;;;;;;;;;;;;;;22.39;42.64;99978.31;4266785;33;19996;-81
2022/08/12 02:49:26;;;;;;;;;;;;;;;22.40;42.52;99972.13;4268365;33;20068;-80
2022/08/12 02:51:53;;;;;;;;;;;;;;;22.25;43.09;99971.69;4271815;33;19981;-81
2022/08/12 02:54:21;;;;;;;;;;;;;;;22.00;43.58;99978.56;4255059;33;860164;-80
2022/08/12 02:56:47;;;;;;;;;;;;;;;22.18;42.79;99975.41;4276327;33;20342;-80
2022/08/12 02:59:18;;;;;;;;;;;;;;;22.24;42.59;99969.97;4272877;33;20522;-81
2022/08/12 03:01:46;;;;;;;;;;;;;;;22.12;42.91;99967.66;4263387;33;20332;-82
2022/08/12 03:04:35;;;;;;;;;;;;;;;22.28;42.84;99966.31;4268657;33;20022;-82
2022/08/12 03:07:11;;;;;;;;;;;;;;;21.83;43.71;99966.72;4280556;33;19985;-81
2022/08/12 03:09:42;;;;;;;;;;;;;;;22.00;43.10;99960.09;4282815;33;19992;-82
2022/08/12 03:12:30;;;;;;;;;;;;;;;22.03;43.24;99954.75;4277006;33;19988;-83
2022/08/12 03:15:02;;;;;;;;;;;;;;;21.95;43.72;99962.00;4271479;33;20007;-82
2022/08/12 03:17:32;;;;;;;;;;;;;;;21.81;44.30;99963.25;3969714;33;5002127;-82
2022/08/12 03:19:59;;;;;;;;;;;;;;;21.72;44.78;99963.50;4261488;33;20050;-81
2022/08/12 03:22:39;;;;;;;;;;;;;;;21.76;44.52;99967.81;4267565;33;20471;-81
2022/08/12 03:25:20;;;;;;;;;;;;;;;21.85;44.43;99971.06;4120090;33;5001509;-82
2022/08/12 03:27:54;;;;;;;;;;;;;;;21.81;44.56;99970.31;4269137;33;19985;-81
2022/08/12 03:30:25;;;;;;;;;;;;;;;21.74;44.76;99969.59;4268341;33;20387;-80
2022/08/12 03:32:55;;;;;;;;;;;;;;;21.73;44.65;99973.16;4269646;33;20024;-81
2022/08/12 03:35:25;;;;;;;;;;;;;;;21.57;44.70;99972.72;4285403;33;19985;-80
2022/08/12 03:38:09;;;;;;;;;;;;;;;21.66;44.76;99968.94;4272325;33;19999;-80
2022/08/12 04:00:51;;;;;;;;;;;;;;;21.33;45.66;99974.19;4227670;33;19986;-81
2022/08/12 04:06:07;;;;;;;;;;;;;;;21.28;45.84;99981.34;4276204;33;20028;-81
2022/08/12 04:08:34;;;;;;;;;;;;;;;21.38;45.90;99987.28;4262173;33;19989;-81
2022/08/12 04:13:47;;;;;;;;;;;;;;;21.33;45.89;99979.44;4279630;33;19981;-81
2022/08/12 04:16:15;;;;;;;;;;;;;;;21.38;46.03;99982.00;4276305;33;20002;-80
2022/08/12 04:18:42;;;;;;;;;;;;;;;21.27;46.29;99990.12;4268370;33;20470;-79
2022/08/12 04:21:10;;;;;;;;;;;;;;;21.10;47.28;99998.47;4268166;33;20049;-80
2022/08/12 04:23:39;;;;;;;;;;;;;;;21.14;46.88;99988.72;4268726;33;19993;-80
2022/08/12 04:26:07;;;;;;;;;;;;;;;21.13;47.07;99998.38;4285003;33;20040;-81
2022/08/12 04:28:35;;;;;;;;;;;;;;;21.23;47.03;99992.87;4274390;33;20335;-81
2022/08/12 04:31:03;;;;;;;;;;;;;;;21.16;47.12;99997.44;4269019;33;20025;-81
2022/08/12 04:33:31;;;;;;;;;;;;;;;21.16;47.19;100000.09;4267847;33;20009;-81
2022/08/12 04:35:58;;;;;;;;;;;;;;;21.26;46.93;100004.22;4268230;33;19985;-81
2022/08/12 04:38:25;;;;;;;;;;;;;;;21.30;47.08;100005.84;4267815;33;20443;-81
2022/08/12 04:40:52;;;;;;;;;;;;;;;21.16;47.98;100013.25;4274141;33;19980;-81
2022/08/12 04:43:19;;;;;;;;;;;;;;;21.26;47.32;100004.22;4291648;33;20041;-81
2022/08/12 04:46:06;;;;;;;;;;;;;;;21.54;46.92;100014.09;4269314;33;19985;-81
2022/08/12 04:48:33;;;;;;;;;;;;;;;21.53;46.98;100012.31;4277772;33;20004;-81
2022/08/12 04:51:00;;;;;;;;;;;;;;;21.60;47.23;100016.53;4270312;33;20059;-81
2022/08/12 04:53:27;;;;;;;;;;;;;;;21.57;47.32;100014.00;4286970;33;19976;-81
2022/08/12 04:55:54;;;;;;;;;;;;;;;21.82;46.54;100020.34;4288385;33;20394;-80
2022/08/12 04:58:21;;;;;;;;;;;;;;;21.81;47.07;100018.59;4281660;33;19985;-79
2022/08/12 05:00:56;;;;;;;;;;;;;;;21.98;45.25;100015.47;4281612;33;19977;-80
2022/08/12 05:03:24;;;;;;;;;;;;;;;21.97;45.59;100018.19;4282098;33;20027;-80
2022/08/12 05:05:51;;;;;;;;;;;;;;;22.08;45.71;100023.13;4267092;33;20010;-81
2022/08/12 05:08:18;;;;;;;;;;;;;;;22.10;45.73;100019.56;4289172;33;20027;-80
2022/08/12 05:10:46;;;;;;;;;;;;;;;22.27;44.04;100027.91;4283193;33;20020;-83
2022/08/12 05:13:18;;;;;;;;;;;;;;;22.36;44.83;100025.88;4268660;33;19984;-82
2022/08/12 05:15:45;;;;;;;;;;;;;;;22.42;45.66;100025.72;4283285;33;19999;-80
2022/08/12 05:18:31;;;;;;;;;;;;;;;22.50;44.18;100023.72;4284904;33;19988;-80
2022/08/12 05:21:00;;;;;;;;;;;;;;;22.58;43.74;100029.59;4282025;33;19976;-81
2022/08/12 05:23:27;;;;;;;;;;;;;;;22.64;44.21;100031.22;4283297;33;20429;-81
2022/08/12 05:25:55;;;;;;;;;;;;;;;22.70;43.41;100026.59;4287046;33;20500;-79
2022/08/12 05:28:24;;;;;;;;;;;;;;;22.73;43.10;100029.16;4282853;33;20271;-81
2022/08/12 05:30:51;;;;;;;;;;;;;;;22.77;43.32;100024.63;4289430;33;19995;-84
2022/08/12 05:33:18;;;;;;;;;;;;;;;22.96;42.44;100022.31;4279809;33;19988;-81
2022/08/12 05:35:49;;;;;;;;;;;;;;;22.96;42.66;100027.59;4281442;33;20021;-80
2022/08/12 05:41:03;;;;;;;;;;;;;;;23.07;42.90;100025.50;4268258;33;20271;-80
2022/08/12 05:43:33;;;;;;;;;;;;;;;23.09;42.80;100028.94;4289180;33;20023;-80
2022/08/12 05:46:00;;;;;;;;;;;;;;;23.25;42.06;100028.44;4287350;33;19988;-82
2022/08/12 05:48:31;;;;;;;;;;;;;;;23.36;40.37;100026.31;4281666;33;20007;-80
2022/08/12 05:50:58;;;;;;;;;;;;;;;23.32;40.89;100024.66;4286235;33;19981;-80
2022/08/12 05:53:25;;;;;;;;;;;;;;;23.48;41.41;100020.59;4279861;33;20000;-80
2022/08/12 05:55:52;;;;;;;;;;;;;;;23.58;40.36;100022.03;4280126;33;19989;-82
2022/08/12 05:58:20;;;;;;;;;;;;;;;23.69;39.93;100026.09;4281888;33;20055;-80
2022/08/12 06:00:46;;;;;;;;;;;;;;;23.76;39.64;100030.25;4288402;33;20335;-80
2022/08/12 06:03:16;;;;;;;;;;;;;;;23.58;40.06;100027.31;4283035;33;20000;-80
2022/08/12 06:05:45;;;;;;;;;;;;;;;23.78;40.37;100018.72;4285912;33;19989;-80
2022/08/12 06:08:22;;;;;;;;;;;;;;;23.56;40.43;100018.56;4287351;33;19984;-79
2022/08/12 06:10:50;;;;;;;;;;;;;;;23.69;40.95;100024.31;4283586;33;19994;-81
2022/08/12 06:13:17;;;;;;;;;;;;;;;23.69;40.93;100023.47;4283376;33;19985;-80
2022/08/12 06:16:06;;;;;;;;;;;;;;;23.86;40.08;100021.06;4135738;33;5001275;-80
2022/08/12 06:18:33;;;;;;;;;;;;;;;23.66;41.30;100019.97;4292884;33;19998;-79
2022/08/12 06:21:00;;;;;;;;;;;;;;;24.06;39.18;100017.72;4297327;33;20020;-80
2022/08/12 06:23:28;;;;;;;;;;;;;;;24.18;39.15;100026.97;4297485;33;19985;-79
2022/08/12 06:25:55;;;;;;;;;;;;;;;23.92;39.29;100018.22;4296075;33;19992;-80
2022/08/12 06:28:22;;;;;;;;;;;;;;;24.11;38.25;100027.19;4290301;33;20000;-79
2022/08/12 06:30:50;;;;;;;;;;;;;;;24.39;38.12;100018.25;4281088;33;19977;-79
2022/08/12 06:33:37;;;;;;;;;;;;;;;24.31;38.77;100025.59;4282054;33;20033;-79
2022/08/12 06:36:24;;;;;;;;;;;;;;;24.59;37.69;100023.66;4282980;33;20315;-79
2022/08/12 06:38:55;;;;;;;;;;;;;;;24.66;37.62;100028.72;4281466;33;20132;-79
2022/08/12 06:44:28;;;;;;;;;;;;;;;24.97;37.50;100023.94;4288352;33;20780;-80
2022/08/12 06:46:55;;;;;;;;;;;;;;;25.40;36.40;100026.63;4293046;33;20000;-80
2022/08/12 06:49:24;;;;;;;;;;;;;;;25.93;35.74;100019.03;4295122;33;20032;-80
2022/08/12 06:51:54;;;;;;;;;;;;;;;26.31;35.05;100032.38;4287808;33;20020;-80
2022/08/12 06:54:24;;;;;;;;;;;;;;;26.79;34.67;100028.38;4283022;33;19997;-80
2022/08/12 06:57:01;;;;;;;;;;;;;;;26.94;33.24;100025.94;4282938;33;20444;-80
2022/08/12 06:59:49;;;;;;;;;;;;;;;27.40;32.60;100018.34;4282452;33;20025;-81
2022/08/12 07:02:21;;;;;;;;;;;;;;;27.67;32.81;100022.28;4282378;33;19995;-80
2022/08/12 07:04:48;;;;;;;;;;;;;;;27.84;32.49;100025.88;4282884;33;19976;-81
2022/08/12 07:07:15;;;;;;;;;;;;;;;28.14;31.79;100021.56;4286439;33;20003;-81
2022/08/12 07:09:42;;;;;;;;;;;;;;;28.29;31.70;100022.56;4286658;33;20036;-81
2022/08/12 07:12:29;;;;;;;;;;;;;;;28.75;30.08;100022.72;4282094;33;19968;-81
2022/08/12 07:14:57;;;;;;;;;;;;;;;28.78;29.93;100024.34;4273905;33;20037;-81
2022/08/12 07:17:24;;;;;;;;;;;;;;;28.98;31.03;100018.75;4284354;33;20295;-81
2022/08/12 07:19:52;;;;;;;;;;;;;;;28.98;30.57;100019.59;4289398;33;20051;-81
2022/08/12 07:22:21;;;;;;;;;;;;;;;29.53;29.03;100020.88;4282683;33;19972;-81
2022/08/12 07:25:29;;;;;;;;;;;;;;;29.61;29.89;100018.66;4282647;33;19999;-81
2022/08/12 07:27:36;;;;;;;;;;;;;;;29.61;30.37;100029.31;4285637;33;19989;-81
2022/08/12 07:30:03;;;;;;;;;;;;;;;30.02;28.62;100028.59;4285700;33;20350;-81
2022/08/12 07:32:32;;;;;;;;;;;;;;;29.99;29.14;100023.44;4282524;33;20398;-80
2022/08/12 07:34:59;;;;;;;;;;;;;;;30.26;28.58;100028.06;4282650;33;20001;-81
2022/08/12 07:37:25;;;;;;;;;;;;;;;30.42;28.54;100031.50;4284553;33;19984;-80
2022/08/12 07:39:52;;;;;;;;;;;;;;;30.54;28.48;100028.03;4288274;33;20064;-81
2022/08/12 07:42:28;;;;;;;;;;;;;;;30.51;27.84;100030.06;4282039;33;19989;-81
2022/08/12 07:44:55;;;;;;;;;;;;;;;30.75;27.67;100023.13;4287310;33;19988;-81
2022/08/12 07:47:22;;;;;;;;;;;;;;;30.78;27.58;100028.28;4285148;33;20040;-81
2022/08/12 07:49:49;;;;;;;;;;;;;;;30.49;27.49;100021.28;4282972;33;19973;-81
2022/08/12 07:52:32;;;;;;;;;;;;;;;30.94;27.20;100022.81;4289962;33;19973;-81
2022/08/12 07:54:59;;;;;;;;;;;;;;;31.13;26.83;100026.94;4289933;33;19996;-80
2022/08/12 07:57:26;;;;;;;;;;;;;;;31.12;27.19;100025.25;4288233;33;19984;-81
2022/08/12 07:59:53;;;;;;;;;;;;;;;31.18;27.87;100024.84;4287280;33;19981;-81
2022/08/12 08:02:22;;;;;;;;;;;;;;;31.18;27.28;100030.19;4286190;33;19999;-81
2022/08/12 08:04:56;;;;;;;;;;;;;;;31.29;26.89;100022.28;4293472;33;20448;-80
2022/08/12 08:07:24;;;;;;;;;;;;;;;31.29;26.84;100022.28;4286670;33;19973;-80
2022/08/12 08:09:56;;;;;;;;;;;;;;;31.34;26.87;100022.88;4283558;33;20031;-81
2022/08/12 08:15:10;;;;;;;;;;;;;;;31.60;26.38;100020.25;4282442;33;20459;-81
2022/08/12 08:17:37;;;;;;;;;;;;;;;31.61;27.76;100021.94;4284112;33;19981;-81
2022/08/12 08:20:05;;;;;;;;;;;;;;;31.73;26.49;100021.13;4288459;33;20884;-81
2022/08/12 08:22:33;;;;;;;;;;;;;;;31.91;25.35;100014.50;4281011;33;19996;-82
2022/08/12 08:25:17;;;;;;;;;;;;;;;31.70;26.72;100018.66;4284277;33;19996;-81
2022/08/12 08:28:06;;;;;;;;;;;;;;;32.01;25.77;100009.38;4284492;33;20101;-80
2022/08/12 08:30:34;;;;;;;;;;;;;;;31.99;26.21;100013.13;4281657;33;19985;-80
2022/08/12 08:33:00;;;;;;;;;;;;;;;31.81;25.80;100013.37;4281508;33;20325;-78
2022/08/12 08:35:27;;;;;;;;;;;;;;;32.45;24.88;100013.37;4284428;33;19997;-79
2022/08/12 08:38:13;;;;;;;;;;;;;;;32.44;25.82;100010.84;4284493;33;19981;-81
2022/08/12 08:44:03;;;;;;;;;;;;;;;32.35;26.41;100006.94;4258741;33;19986;-80
2022/08/12 08:46:33;;;;;;;;;;;;;;;32.36;25.48;100006.84;4273564;33;19995;-80
2022/08/12 08:49:00;;;;;;;;;;;;;;;32.90;25.03;100002.97;4286215;33;20523;-80
2022/08/12 08:51:27;;;;;;;;;;;;;;;32.53;25.67;100015.53;4282121;33;19977;-79
2022/08/12 08:53:54;;;;;;;;;;;;;;;32.54;25.40;100011.88;4285003;33;19991;-80
2022/08/12 08:56:21;;;;;;;;;;;;;;;32.80;24.30;100013.53;4286445;33;19996;-80
2022/08/12 08:58:48;;;;;;;;;;;;;;;32.24;25.39;100010.41;4280534;33;19989;-80
2022/08/12 09:01:20;;;;;;;;;;;;;;;32.88;24.71;100010.25;4283642;33;19993;-80
2022/08/12 09:03:47;;;;;;;;;;;;;;;32.44;25.26;100000.13;4286609;33;19991;-80
2022/08/12 09:06:34;;;;;;;;;;;;;;;32.47;25.31;99989.16;4281052;33;20003;-79
2022/08/12 09:09:04;;;;;;;;;;;;;;;32.58;26.30;99999.94;4288712;33;20000;-79
2022/08/12 09:14:40;;;;;;;;;;;;;;;32.95;25.26;99991.88;4283431;33;19981;-80
2022/08/12 09:17:13;;;;;;;;;;;;;;;33.04;25.00;99988.53;4289766;33;20063;-80
2022/08/12 09:19:47;;;;;;;;;;;;;;;32.99;24.14;99985.34;4293783;33;20032;-80
2022/08/12 09:22:23;;;;;;;;;;;;;;;33.09;24.23;99983.69;4272496;33;19989;-80
2022/08/12 09:24:55;;;;;;;;;;;;;;;33.27;24.29;99982.28;4281344;33;20004;-80
2022/08/12 09:27:25;;;;;;;;;;;;;;;33.13;24.22;99977.13;4287805;33;19992;-80
2022/08/12 09:30:14;;;;;;;;;;;;;;;33.54;23.52;99986.56;4296029;33;20777;-80
2022/08/12 09:32:42;;;;;;;;;;;;;;;33.24;22.48;99979.81;4293632;33;20019;-80
2022/08/12 09:35:32;;;;;;;;;;;;;;;33.33;23.63;99979.13;4301159;33;19995;-80
2022/08/12 09:38:16;;;;;;;;;;;;;;;33.22;23.47;99971.06;4298375;33;19992;-80
2022/08/12 09:40:54;;;;;;;;;;;;;;;33.36;23.31;99972.69;4295411;33;19993;-80
2022/08/12 09:46:52;;;;;;;;;;;;;;;33.88;22.29;99973.16;4288539;33;19993;-80
2022/08/12 09:49:23;;;;;;;;;;;;;;;33.59;23.08;99956.66;4289788;33;20017;-81
2022/08/12 09:51:53;;;;;;;;;;;;;;;34.10;23.13;99965.13;4284699;33;20266;-80
2022/08/12 09:54:24;;;;;;;;;;;;;;;33.81;23.18;99956.66;4283842;33;19985;-80
2022/08/12 09:57:06;;;;;;;;;;;;;;;34.06;22.46;99955.63;4287482;33;19995;-80
2022/08/12 09:59:53;;;;;;;;;;;;;;;34.20;21.68;99952.66;4288640;33;20359;-81
2022/08/12 10:02:59;;;;;;;;;;;;;;;34.12;23.12;99960.50;4284399;33;19985;-80
2022/08/12 10:05:32;;;;;;;;;;;;;;;33.99;24.15;99954.38;4282928;33;19989;-81
2022/08/12 10:08:20;;;;;;;;;;;;;;;34.00;22.66;99962.28;4288740;33;19987;-81
2022/08/12 10:13:40;;;;;;;;;;;;;;;33.99;22.89;99954.38;4283176;33;20016;-80
2022/08/12 10:16:16;;;;;;;;;;;;;;;34.23;21.21;99947.03;4286509;33;19981;-81
2022/08/12 10:18:58;;;;;;;;;;;;;;;34.59;21.12;99947.75;4262734;33;20625;-80
2022/08/12 10:21:25;;;;;;;;;;;;;;;34.66;20.68;99938.19;4258362;33;19996;-80
2022/08/12 10:24:04;;;;;;;;;;;;;;;34.54;21.75;99944.56;4254886;33;19981;-80
2022/08/12 10:29:37;;;;;;;;;;;;;;;34.68;21.26;99944.25;4285713;33;20454;-81
2022/08/12 10:32:24;;;;;;;;;;;;;;;34.67;21.29;99934.50;4290453;33;20419;-80
2022/08/12 10:35:12;;;;;;;;;;;;;;;34.60;21.64;99938.69;4283337;33;19981;-81
2022/08/12 10:37:40;;;;;;;;;;;;;;;34.51;20.86;99934.03;4277408;33;20064;-80
2022/08/12 10:40:28;;;;;;;;;;;;;;;34.39;21.79;99935.03;4272499;33;20353;-77
2022/08/12 10:45:55;;;;;;;;;;;;;;;34.54;21.39;99939.19;4287548;33;20298;-80
2022/08/12 10:48:25;;;;;;;;;;;;;;;34.45;21.48;99934.53;4289711;33;19985;-79
2022/08/12 10:51:03;;;;;;;;;;;;;;;34.30;22.13;99935.78;4291234;33;20415;-79
2022/08/12 10:53:54;;;;;;;;;;;;;;;34.60;21.08;99925.25;4289384;33;19988;-79
2022/08/12 10:56:26;;;;;;;;;;;;;;;34.46;22.10;99930.84;4289221;33;20323;-80
2022/08/12 10:59:00;;;;;;;;;;;;;;;34.59;21.26;99915.47;4282274;33;19988;-80
2022/08/12 11:01:29;;;;;;;;;;;;;;;34.58;21.66;99913.75;4290503;33;19982;-81
2022/08/12 11:04:16;;;;;;;;;;;;;;;34.82;21.39;99912.69;4282851;33;19989;-81
2022/08/12 11:07:03;;;;;;;;;;;;;;;34.91;21.53;99914.63;4283304;33;20040;-81
2022/08/12 11:09:50;;;;;;;;;;;;;;;34.95;20.94;99910.69;4282926;33;20028;-81
2022/08/12 11:12:30;;;;;;;;;;;;;;;34.39;21.43;99913.53;4284543;33;19991;-80
2022/08/12 11:15:19;;;;;;;;;;;;;;;34.10;21.34;99916.75;4292211;33;20036;-81
2022/08/12 11:18:07;;;;;;;;;;;;;;;33.27;23.43;99909.81;4290212;33;19984;-80
2022/08/12 11:20:46;;;;;;;;;;;;;;;33.85;22.51;99906.25;4281897;33;20319;-80
2022/08/12 11:23:13;;;;;;;;;;;;;;;33.84;22.51;99904.56;4281871;33;19977;-82
2022/08/12 11:26:00;;;;;;;;;;;;;;;33.85;22.88;99898.19;4289509;33;19973;-80
2022/08/12 11:28:32;;;;;;;;;;;;;;;33.80;21.49;99901.25;4275049;33;20346;-81
2022/08/12 11:31:08;;;;;;;;;;;;;;;33.45;22.16;99898.66;4287820;33;20884;-81
2022/08/12 11:33:40;;;;;;;;;;;;;;;33.37;22.66;99898.38;4281892;33;19981;-81
2022/08/12 11:36:27;;;;;;;;;;;;;;;33.30;21.86;99885.44;4290614;33;19977;-80
2022/08/12 11:38:56;;;;;;;;;;;;;;;32.99;22.28;99899.50;4282801;33;19989;-80
2022/08/12 11:41:23;;;;;;;;;;;;;;;32.99;22.50;99895.00;4288179;33;19992;-82
2022/08/12 11:43:59;;;;;;;;;;;;;;;32.89;22.74;99899.31;4286270;33;19980;-81
2022/08/12 11:46:46;;;;;;;;;;;;;;;33.14;22.59;99898.34;4291546;33;20004;-81
2022/08/12 11:49:20;;;;;;;;;;;;;;;33.20;22.40;99900.56;4291081;33;19980;-81
2022/08/12 11:52:01;;;;;;;;;;;;;;;33.34;21.69;99894.09;4210067;33;20298;-82
2022/08/12 11:54:29;;;;;;;;;;;;;;;33.29;21.15;99897.16;4276728;33;20324;-83
2022/08/12 11:56:59;;;;;;;;;;;;;;;33.21;21.13;99894.19;4268002;33;20000;-83
2022/08/12 11:59:29;;;;;;;;;;;;;;;33.26;21.48;99892.03;4276099;33;19996;-81
2022/08/12 12:02:16;;;;;;;;;;;;;;;33.72;21.01;99895.63;4269432;33;20016;-81
2022/08/12 12:04:47;;;;;;;;;;;;;;;33.55;22.07;99886.25;4275968;33;19983;-81
2022/08/12 12:07:21;;;;;;;;;;;;;;;33.42;22.84;99885.47;4281843;33;20037;-81
2022/08/12 12:09:48;;;;;;;;;;;;;;;33.75;21.48;99888.19;4277675;33;19990;-81
2022/08/12 12:12:22;;;;;;;;;;;;;;;33.85;21.90;99893.66;4295600;33;20091;-81
2022/08/12 12:14:51;;;;;;;;;;;;;;;33.41;22.63;99889.13;4277477;33;20648;-81
2022/08/12 12:17:22;;;;;;;;;;;;;;;33.63;22.88;99883.78;4279557;33;20048;-82
2022/08/12 12:19:49;;;;;;;;;;;;;;;33.50;23.05;99891.09;4277023;33;20461;-81
2022/08/12 12:22:17;;;;;;;;;;;;;;;33.37;22.71;99882.28;4276076;33;19996;-81
2022/08/12 12:24:54;;;;;;;;;;;;;;;33.22;22.88;99879.84;4274502;33;20506;-81
2022/08/12 12:27:21;;;;;;;;;;;;;;;33.38;23.20;99878.63;4284985;33;19980;-81
2022/08/12 12:30:08;;;;;;;;;;;;;;;33.03;24.67;99884.91;4288506;33;20033;-81
2022/08/12 12:32:55;;;;;;;;;;;;;;;32.89;24.80;99878.72;4290731;33;20382;-81
2022/08/12 12:35:22;;;;;;;;;;;;;;;33.01;23.85;99876.97;4292373;33;19977;-81
2022/08/12 12:38:10;;;;;;;;;;;;;;;33.38;23.65;99867.88;4289262;33;19994;-81
2022/08/12 12:40:42;;;;;;;;;;;;;;;33.54;23.21;99871.97;4294568;33;20278;-81
2022/08/12 12:43:10;;;;;;;;;;;;;;;33.45;23.17;99869.13;4287733;33;20334;-81
2022/08/12 12:45:40;;;;;;;;;;;;;;;33.42;23.24;99870.22;4143721;33;5001770;-81
2022/08/12 12:48:12;;;;;;;;;;;;;;;33.49;22.73;99860.72;4288754;33;20030;-81
2022/08/12 12:50:40;;;;;;;;;;;;;;;33.66;23.22;99855.84;4276599;33;20033;-80
2022/08/12 12:53:20;;;;;;;;;;;;;;;33.58;23.56;99848.41;4277505;33;20587;-81
2022/08/12 12:56:14;;;;;;;;;;;;;;;33.58;23.05;99851.09;4291404;33;20012;-80
2022/08/12 12:58:41;;;;;;;;;;;;;;;33.71;22.56;99854.50;4287569;33;19976;-79
2022/08/12 13:01:09;;;;;;;;;;;;;;;33.77;22.77;99843.28;4290546;33;19981;-80
2022/08/12 13:03:56;;;;;;;;;;;;;;;33.71;22.19;99843.78;4287336;33;20397;-80
2022/08/12 13:06:29;;;;;;;;;;;;;;;33.49;22.42;99838.38;4287662;33;20013;-80
2022/08/12 13:09:00;;;;;;;;;;;;;;;33.80;21.61;99834.97;4292253;33;19977;-80
2022/08/12 13:11:30;;;;;;;;;;;;;;;33.66;21.05;99835.22;4291978;33;20300;-79
2022/08/12 13:14:11;;;;;;;;;;;;;;;33.97;20.92;99820.16;4289547;33;20290;-79
2022/08/12 13:17:02;;;;;;;;;;;;;;;34.04;21.10;99825.91;4146037;33;5001249;-81
2022/08/12 13:19:35;;;;;;;;;;;;;;;33.97;21.14;99816.63;4289906;33;20287;-82
2022/08/12 13:22:16;;;;;;;;;;;;;;;33.49;20.84;99817.78;4291767;33;20378;-81
2022/08/12 13:24:49;;;;;;;;;;;;;;;33.41;19.28;99813.97;4290205;33;20007;-82
2022/08/12 13:27:28;;;;;;;;;;;;;;;33.34;19.53;99814.47;4290869;33;20335;-80
2022/08/12 13:30:04;;;;;;;;;;;;;;;33.53;18.72;99821.06;4293503;33;20015;-80
2022/08/12 13:32:32;;;;;;;;;;;;;;;33.41;19.27;99814.84;4289976;33;19991;-80
2022/08/12 13:35:01;;;;;;;;;;;;;;;33.18;20.37;99815.78;4294402;33;20380;-80
2022/08/12 13:37:52;;;;;;;;;;;;;;;32.85;21.72;99812.91;4287023;33;19993;-81
2022/08/12 13:40:21;;;;;;;;;;;;;;;32.69;22.36;99812.38;4285651;33;19988;-80
2022/08/12 13:42:52;;;;;;;;;;;;;;;32.88;21.74;99818.03;4297901;33;20036;-81
2022/08/12 13:45:18;;;;;;;;;;;;;;;32.94;22.42;99815.84;4289861;33;19977;-79
2022/08/12 13:48:04;;;;;;;;;;;;;;;32.73;24.62;99813.00;4295125;33;20003;-80
2022/08/12 13:50:35;;;;;;;;;;;;;;;33.01;22.73;99822.47;4295162;33;19995;-80
2022/08/12 13:53:02;;;;;;;;;;;;;;;33.31;22.37;99814.72;4290177;33;19995;-79
2022/08/12 13:55:50;;;;;;;;;;;;;;;33.27;23.04;99813.22;4289710;33;19993;-79
2022/08/12 13:58:28;;;;;;;;;;;;;;;33.31;22.79;99809.34;4302968;33;20704;-79
2022/08/12 14:00:56;;;;;;;;;;;;;;;33.07;23.31;99800.53;4295252;33;20744;-81
2022/08/12 14:03:24;;;;;;;;;;;;;;;33.13;23.22;99805.44;4283593;33;19996;-79
2022/08/12 14:06:03;;;;;;;;;;;;;;;33.22;22.84;99812.75;4290997;33;19986;-81
2022/08/12 14:08:32;;;;;;;;;;;;;;;33.19;23.10;99802.28;4283709;33;19988;-81
2022/08/12 14:11:00;;;;;;;;;;;;;;;33.22;22.79;99803.87;4280380;33;20019;-80
2022/08/12 14:13:28;;;;;;;;;;;;;;;33.24;22.47;99786.66;4281175;33;20501;-80
2022/08/12 14:16:16;;;;;;;;;;;;;;;33.43;22.58;99793.25;4289598;33;19981;-81
2022/08/12 14:19:04;;;;;;;;;;;;;;;33.49;23.04;99784.69;4287132;33;20017;-80
2022/08/12 14:21:49;;;;;;;;;;;;;;;33.44;22.90;99786.88;4297164;33;19996;-81
2022/08/12 14:24:26;;;;;;;;;;;;;;;33.55;21.92;99794.97;4291358;33;19999;-80
2022/08/12 14:26:56;;;;;;;;;;;;;;;33.24;22.43;99792.00;4283194;33;19985;-79
2022/08/12 14:29:28;;;;;;;;;;;;;;;32.99;22.31;99782.34;4283054;33;19980;-79
2022/08/12 14:32:16;;;;;;;;;;;;;;;32.91;22.50;99783.91;4291971;33;19999;-80
2022/08/12 14:34:50;;;;;;;;;;;;;;;33.25;22.36;99774.06;4291276;33;20051;-79
2022/08/12 14:37:17;;;;;;;;;;;;;;;33.22;22.32;99767.16;4282723;33;20045;-80
2022/08/12 14:40:04;;;;;;;;;;;;;;;33.25;22.09;99760.66;4283313;33;20787;-80
2022/08/12 14:42:31;;;;;;;;;;;;;;;33.16;22.27;99762.28;4284869;33;20028;-79
2022/08/12 14:44:59;;;;;;;;;;;;;;;33.33;21.42;99767.13;4290431;33;20739;-80
2022/08/12 14:47:28;;;;;;;;;;;;;;;33.26;21.93;99757.03;4296031;33;19989;-80
2022/08/12 14:50:02;;;;;;;;;;;;;;;33.29;21.61;99757.63;4283227;33;19984;-79
2022/08/12 14:52:49;;;;;;;;;;;;;;;33.28;21.21;99755.94;4291310;33;20224;-80
2022/08/12 14:55:37;;;;;;;;;;;;;;;33.31;21.65;99758.38;4282685;33;19985;-79
2022/08/12 14:58:24;;;;;;;;;;;;;;;33.26;21.45;99751.66;4290629;33;20378;-80
2022/08/12 15:03:37;;;;;;;;;;;;;;;32.70;22.19;99743.53;4284840;33;19976;-80
2022/08/12 15:06:21;;;;;;;;;;;;;;;32.73;22.08;99738.78;4291646;33;19992;-81
2022/08/12 15:09:08;;;;;;;;;;;;;;;32.87;21.78;99725.16;4293327;33;20057;-81
2022/08/12 15:11:39;;;;;;;;;;;;;;;32.94;22.10;99725.53;4283159;33;20003;-81